Time;durP1;ratioP1;P1;durP2;ratioP2;P2;SDS_P1;SDS_P2;PMS_P1;PMS_P2;Temp;Humidity;BMP_temperature;BMP_pressure;BME280_temperature;BME280_humidity;BME280_pressure;Samples;Min_cycle;Max_cycle;Signal;HPM_P1;HPM_P2
2021/12/14 00:02:26;;;;;;;0.75;0.35;;;4.20;99.90;;;;;;4994147;28;20068;-79
2021/12/14 00:04:52;;;;;;;0.30;0.30;;;4.20;99.90;;;;;;5007167;28;20034;-79
2021/12/14 00:07:19;;;;;;;0.03;0.03;;;4.20;99.90;;;;;;5014191;28;20124;-79
2021/12/14 00:09:46;;;;;;;1.20;0.45;;;4.30;99.90;;;;;;5013895;28;20029;-79
2021/12/14 00:12:40;;;;;;;0.30;0.30;;;4.20;99.90;;;;;;5007394;28;20065;-77
2021/12/14 00:15:12;;;;;;;0.38;0.38;;;4.20;99.90;;;;;;4994160;28;20031;-77
2021/12/14 00:17:42;;;;;;;2.45;0.47;;;4.20;99.90;;;;;;4994191;28;20022;-79
2021/12/14 00:20:37;;;;;;;0.57;0.57;;;4.20;99.90;;;;;;4994117;28;20061;-79
2021/12/14 00:25:42;;;;;;;0.00;0.00;;;4.10;99.90;;;;;;4999472;28;20088;-79
2021/12/14 00:28:30;;;;;;;0.00;0.00;;;4.10;99.90;;;;;;5013241;28;20025;-77
2021/12/14 00:30:58;;;;;;;0.70;0.65;;;4.00;99.90;;;;;;5013829;28;20025;-77
2021/12/14 00:33:30;;;;;;;0.00;0.00;;;4.00;99.90;;;;;;5013603;28;20500;-79
2021/12/14 00:35:56;;;;;;;2.20;0.85;;;3.90;99.90;;;;;;5013493;28;20022;-79
2021/12/14 00:38:22;;;;;;;1.20;0.52;;;3.90;99.90;;;;;;5013385;28;20053;-77
2021/12/14 00:40:59;;;;;;;0.00;0.00;;;3.90;99.90;;;;;;5012329;28;20037;-77
2021/12/14 00:43:26;;;;;;;0.05;0.03;;;3.90;99.90;;;;;;5013713;28;20388;-79
2021/12/14 00:45:52;;;;;;;0.00;0.00;;;3.90;99.90;;;;;;5013442;28;20056;-79
2021/12/14 00:48:19;;;;;;;0.75;0.75;;;3.80;99.90;;;;;;5011804;28;20026;-78
2021/12/14 00:50:50;;;;;;;0.47;0.38;;;3.80;99.90;;;;;;5013053;28;20014;-79
2021/12/14 00:53:15;;;;;;;0.20;0.20;;;3.80;99.90;;;;;;5012951;28;20044;-77
2021/12/14 00:55:44;;;;;;;0.00;0.00;;;3.80;99.90;;;;;;5013539;28;20444;-79
2021/12/14 00:58:11;;;;;;;0.20;0.20;;;3.70;99.90;;;;;;5011450;28;20054;-79
2021/12/14 01:00:42;;;;;;;0.40;0.40;;;3.80;99.90;;;;;;4994203;28;20038;-79
2021/12/14 01:03:09;;;;;;;0.43;0.43;;;3.70;99.90;;;;;;5009176;28;20064;-79
2021/12/14 01:05:39;;;;;;;0.00;0.00;;;3.80;99.90;;;;;;4994301;28;20453;-77
2021/12/14 01:08:09;;;;;;;0.25;0.25;;;3.80;99.90;;;;;;4993234;28;20030;-79
2021/12/14 01:10:41;;;;;;;0.20;0.20;;;3.80;99.90;;;;;;4992552;28;20062;-77
2021/12/14 01:13:09;;;;;;;0.27;0.20;;;3.80;99.90;;;;;;4992455;28;20032;-77
2021/12/14 01:16:18;;;;;;;0.70;0.35;;;3.80;99.90;;;;;;4993338;28;20081;-79
2021/12/14 01:18:50;;;;;;;1.65;0.40;;;3.90;99.90;;;;;;4992834;28;20022;-78
2021/12/14 01:21:46;;;;;;;0.20;0.20;;;3.80;99.90;;;;;;5001056;28;20427;-78
2021/12/14 01:24:33;;;;;;;0.10;0.10;;;3.80;99.90;;;;;;4993059;28;20023;-79
2021/12/14 01:26:59;;;;;;;1.48;0.77;;;3.80;99.90;;;;;;5010150;28;20026;-79
2021/12/14 01:29:25;;;;;;;0.43;0.43;;;3.80;99.90;;;;;;5012812;28;20037;-77
2021/12/14 01:31:55;;;;;;;0.17;0.17;;;3.80;99.90;;;;;;5012755;28;20440;-79
2021/12/14 01:34:22;;;;;;;0.70;0.70;;;3.80;99.90;;;;;;5012086;28;20117;-78
2021/12/14 01:36:53;;;;;;;0.20;0.20;;;3.80;99.90;;;;;;5012687;28;20489;-79
2021/12/14 01:42:07;;;;;;;0.10;0.10;;;3.70;99.90;;;;;;5012291;28;20121;-79
2021/12/14 01:44:41;;;;;;;0.15;0.15;;;3.70;99.90;;;;;;5012255;28;20182;-77
2021/12/14 01:47:12;;;;;;;0.30;0.20;;;3.70;99.90;;;;;;5012357;28;20088;-77
2021/12/14 01:49:39;;;;;;;0.00;0.00;;;3.70;99.90;;;;;;5011978;28;20018;-77
2021/12/14 01:52:09;;;;;;;5.32;2.22;;;3.60;99.90;;;;;;5012163;28;20077;-77
2021/12/14 01:54:43;;;;;;;0.10;0.10;;;3.60;99.90;;;;;;5012278;28;20030;-79
2021/12/14 01:57:13;;;;;;;0.00;0.00;;;3.60;99.90;;;;;;5007363;28;20121;-77
2021/12/14 01:59:43;;;;;;;0.10;0.10;;;3.60;99.90;;;;;;4991785;28;20048;-77
2021/12/14 02:02:29;;;;;;;1.17;0.70;;;3.70;99.90;;;;;;5000588;28;20026;-77
2021/12/14 02:04:55;;;;;;;0.22;0.22;;;3.70;99.90;;;;;;4998906;28;20490;-79
2021/12/14 02:07:23;;;;;;;10.95;1.17;;;3.70;99.90;;;;;;4992924;28;20085;-79
2021/12/14 02:09:55;;;;;;;2.20;0.85;;;3.70;99.90;;;;;;4990666;28;20493;-79
2021/12/14 02:12:25;;;;;;;0.57;0.17;;;3.80;99.90;;;;;;4991501;28;20521;-77
2021/12/14 02:14:52;;;;;;;0.55;0.55;;;3.90;99.90;;;;;;4992624;28;20030;-79
2021/12/14 02:17:22;;;;;;;0.00;0.00;;;3.90;99.90;;;;;;4992252;28;20494;-78
2021/12/14 02:19:49;;;;;;;1.10;0.60;;;3.90;99.90;;;;;;4992366;28;20165;-77
2021/12/14 02:22:16;;;;;;;0.43;0.32;;;3.90;99.90;;;;;;5008325;28;20041;-77
2021/12/14 02:24:45;;;;;;;0.40;0.40;;;3.90;99.90;;;;;;5012032;28;20080;-78
2021/12/14 02:27:11;;;;;;;0.03;0.03;;;3.90;99.90;;;;;;5012063;28;20018;-79
2021/12/14 02:29:44;;;;;;;0.00;0.00;;;3.90;99.90;;;;;;5012266;28;20362;-79
2021/12/14 02:32:17;;;;;;;0.63;0.63;;;3.90;99.90;;;;;;5011957;28;20481;-79
2021/12/14 02:34:53;;;;;;;0.15;0.15;;;3.80;99.90;;;;;;4996213;28;20030;-77
2021/12/14 02:37:34;;;;;;;0.00;0.00;;;3.80;99.90;;;;;;4992391;28;20027;-77
2021/12/14 02:40:15;;;;;;;0.20;0.20;;;3.70;99.90;;;;;;4992473;28;20120;-79
2021/12/14 02:42:41;;;;;;;0.00;0.00;;;3.60;99.90;;;;;;4992515;28;20042;-79
2021/12/14 02:45:07;;;;;;;0.10;0.05;;;3.70;99.90;;;;;;4991041;28;20034;-79
2021/12/14 02:47:33;;;;;;;0.35;0.28;;;3.70;99.90;;;;;;4991120;28;20456;-78
2021/12/14 02:49:59;;;;;;;0.30;0.30;;;3.70;99.90;;;;;;4998021;28;20022;-77
2021/12/14 02:52:39;;;;;;;0.00;0.00;;;3.70;99.90;;;;;;5013930;28;20030;-79
2021/12/14 02:55:15;;;;;;;0.20;0.20;;;3.60;99.90;;;;;;5015028;28;20401;-79
2021/12/14 02:57:46;;;;;;;0.10;0.10;;;3.60;99.90;;;;;;5015302;28;20416;-79
2021/12/14 03:00:18;;;;;;;2.03;1.13;;;3.60;99.90;;;;;;4998898;28;20118;-79
2021/12/14 03:02:44;;;;;;;0.00;0.00;;;3.50;99.90;;;;;;5006928;28;20030;-77
2021/12/14 03:05:16;;;;;;;0.00;0.00;;;3.50;99.90;;;;;;4998361;28;20035;-79
2021/12/14 03:07:46;;;;;;;0.20;0.20;;;3.50;99.90;;;;;;4995739;28;20033;-79
2021/12/14 03:12:48;;;;;;;0.40;0.40;;;3.40;99.90;;;;;;4994927;28;20397;-79
2021/12/14 03:15:25;;;;;;;5.55;0.75;;;3.40;99.90;;;;;;4995145;28;20564;-77
2021/12/14 03:17:56;;;;;;;0.00;0.00;;;3.40;99.90;;;;;;4995184;28;20106;-79
2021/12/14 03:20:26;;;;;;;0.77;0.30;;;3.30;99.90;;;;;;4995427;28;20037;-79
2021/12/14 03:23:00;;;;;;;0.28;0.28;;;3.30;99.90;;;;;;5014807;28;20022;-79
2021/12/14 03:25:27;;;;;;;0.55;0.43;;;3.40;99.90;;;;;;5010331;28;20033;-79
2021/12/14 03:27:53;;;;;;;0.68;0.40;;;3.40;99.90;;;;;;4995402;28;20504;-77
2021/12/14 03:30:30;;;;;;;0.10;0.10;;;3.40;99.90;;;;;;4993797;28;20022;-79
2021/12/14 03:33:26;;;;;;;0.47;0.47;;;3.40;99.90;;;;;;4995266;28;20080;-79
2021/12/14 03:36:00;;;;;;;0.00;0.00;;;3.40;99.90;;;;;;4995096;28;20028;-77
2021/12/14 03:38:52;;;;;;;0.00;0.00;;;3.40;99.90;;;;;;4993719;28;20478;-79
2021/12/14 03:41:21;;;;;;;0.08;0.08;;;3.40;99.90;;;;;;4991160;28;20049;-77
2021/12/14 03:44:07;;;;;;;0.00;0.00;;;3.30;99.90;;;;;;4995078;28;20054;-79
2021/12/14 03:46:42;;;;;;;0.00;0.00;;;3.30;99.90;;;;;;4993952;28;20022;-79
2021/12/14 03:49:09;;;;;;;0.20;0.20;;;3.30;99.90;;;;;;4992692;28;20057;-79
2021/12/14 03:51:37;;;;;;;0.00;0.00;;;3.30;99.90;;;;;;5013943;28;20068;-77
2021/12/14 03:54:03;;;;;;;0.52;0.30;;;3.30;99.90;;;;;;5013848;28;20038;-79
2021/12/14 03:56:29;;;;;;;0.10;0.10;;;3.30;99.90;;;;;;5013613;28;20512;-79
2021/12/14 03:58:56;;;;;;;0.00;0.00;;;3.30;99.90;;;;;;4993719;28;20461;-79
2021/12/14 04:01:28;;;;;;;0.10;0.10;;;3.30;99.90;;;;;;4994555;28;20062;-79
2021/12/14 04:04:18;;;;;;;0.13;0.13;;;3.30;99.90;;;;;;4998234;28;20049;-79
2021/12/14 04:06:46;;;;;;;0.00;0.00;;;3.30;99.90;;;;;;5014216;28;20061;-79
2021/12/14 04:09:14;;;;;;;0.00;0.00;;;3.20;99.90;;;;;;5013705;28;20569;-77
2021/12/14 04:11:41;;;;;;;0.45;0.45;;;3.30;99.90;;;;;;5010591;28;20416;-77
2021/12/14 04:14:07;;;;;;;0.00;0.00;;;3.30;99.90;;;;;;4994175;28;20030;-79
2021/12/14 04:16:35;;;;;;;0.00;0.00;;;3.30;99.90;;;;;;4994358;28;20030;-79
2021/12/14 04:19:06;;;;;;;0.00;0.00;;;3.40;99.90;;;;;;4994003;28;20027;-79
2021/12/14 04:21:35;;;;;;;0.03;0.03;;;3.40;99.90;;;;;;5004308;28;20033;-77
2021/12/14 04:24:01;;;;;;;1.15;0.40;;;3.40;99.90;;;;;;5013792;28;20113;-79
2021/12/14 04:26:27;;;;;;;0.05;0.05;;;3.40;99.90;;;;;;5000987;28;20429;-79
2021/12/14 04:28:57;;;;;;;0.15;0.13;;;3.40;99.90;;;;;;4994387;28;20074;-79
2021/12/14 04:31:23;;;;;;;1.95;0.35;;;3.30;99.90;;;;;;4994327;28;20023;-79
2021/12/14 04:33:50;;;;;;;0.15;0.15;;;3.20;99.90;;;;;;4993732;28;20034;-77
2021/12/14 04:36:21;;;;;;;0.20;0.20;;;3.20;99.90;;;;;;4994475;28;20027;-79
2021/12/14 04:38:58;;;;;;;0.00;0.00;;;3.10;99.90;;;;;;4996021;28;20104;-79
2021/12/14 04:52:32;;;;;;;0.20;0.20;;;3.10;99.90;;;;;;5013920;28;20117;-79
2021/12/14 04:55:08;;;;;;;0.15;0.15;;;3.20;99.90;;;;;;5015789;28;20030;-79
2021/12/14 04:57:43;;;;;;;0.20;0.20;;;3.20;99.90;;;;;;5013258;28;20049;-77
2021/12/14 05:00:31;;;;;;;0.45;0.45;;;3.20;99.90;;;;;;4997061;28;20026;-77
2021/12/14 05:02:59;;;;;;;0.00;0.00;;;3.10;99.90;;;;;;5008042;28;20022;-79
2021/12/14 05:05:29;;;;;;;0.50;0.50;;;3.10;99.90;;;;;;5012856;28;20021;-78
2021/12/14 05:10:38;;;;;;;0.55;0.43;;;3.00;99.90;;;;;;5013116;28;20470;-78
2021/12/14 05:13:04;;;;;;;1.20;1.13;;;2.90;99.90;;;;;;5010917;28;20036;-77
2021/12/14 05:15:30;;;;;;;0.08;0.08;;;2.90;99.90;;;;;;5012610;28;20022;-78
2021/12/14 05:17:57;;;;;;;0.05;0.05;;;2.80;99.90;;;;;;5012700;28;20564;-79
2021/12/14 05:20:23;;;;;;;2.85;2.65;;;2.80;99.90;;;;;;5012224;28;20053;-79
2021/12/14 05:22:48;;;;;;;0.00;0.00;;;2.80;99.90;;;;;;5011268;28;20061;-79
2021/12/14 05:25:25;;;;;;;0.00;0.00;;;2.80;99.90;;;;;;5009700;28;20022;-78
2021/12/14 05:27:57;;;;;;;0.15;0.15;;;2.80;99.90;;;;;;4993208;28;20025;-76
2021/12/14 05:30:27;;;;;;;0.10;0.10;;;2.80;99.90;;;;;;4993180;28;20073;-78
2021/12/14 05:32:59;;;;;;;0.20;0.20;;;2.80;99.90;;;;;;4992696;28;20027;-80
2021/12/14 05:35:25;;;;;;;1.30;0.80;;;2.80;99.90;;;;;;4992648;28;20061;-79
2021/12/14 05:37:54;;;;;;;0.40;0.40;;;2.80;99.90;;;;;;4992989;28;20394;-77
2021/12/14 05:41:10;;;;;;;0.68;0.68;;;2.80;99.90;;;;;;4992041;28;20105;-77
2021/12/14 05:43:27;;;;;;;0.05;0.05;;;2.80;99.90;;;;;;4987271;28;20046;-78
2021/12/14 05:46:03;;;;;;;0.10;0.10;;;2.80;99.90;;;;;;4992895;28;20030;-79
2021/12/14 05:48:32;;;;;;;0.00;0.00;;;2.70;99.90;;;;;;4992484;28;20026;-79
2021/12/14 05:51:05;;;;;;;0.57;0.32;;;2.60;99.90;;;;;;5006471;28;20022;-79
2021/12/14 05:53:37;;;;;;;;;;;2.50;99.90;;;;;;5012687;28;20548;-78
2021/12/14 05:56:10;;;;;;;0.10;0.10;;;2.50;99.90;;;;;;5012580;28;19906;-80
2021/12/14 05:58:35;;;;;;;0.25;0.25;;;2.50;99.90;;;;;;5009126;28;20129;-79
2021/12/14 06:01:06;;;;;;;0.13;0.13;;;2.40;99.90;;;;;;4991333;28;20101;-78
2021/12/14 06:03:38;;;;;;;0.28;0.28;;;2.40;99.90;;;;;;5010090;28;20018;-79
2021/12/14 06:06:04;;;;;;;0.10;0.10;;;2.50;99.90;;;;;;4992663;28;20406;-78
2021/12/14 06:08:33;;;;;;;0.03;0.03;;;2.50;99.90;;;;;;4992417;28;20037;-79
2021/12/14 06:11:00;;;;;;;0.10;0.10;;;2.50;99.90;;;;;;4992661;28;20025;-79
2021/12/14 06:13:45;;;;;;;0.17;0.17;;;2.60;99.90;;;;;;4991931;28;20027;-79
2021/12/14 06:16:27;;;;;;;0.00;0.00;;;2.60;99.90;;;;;;4992299;28;20065;-78
2021/12/14 06:18:54;;;;;;;1.37;1.27;;;2.60;99.90;;;;;;4992237;28;20031;-78
2021/12/14 06:21:31;;;;;;;1.45;0.63;;;2.60;99.90;;;;;;5000737;28;20034;-78
2021/12/14 06:24:05;;;;;;;0.00;0.00;;;2.50;99.90;;;;;;5012134;28;20046;-79
2021/12/14 06:26:48;;;;;;;0.08;0.08;;;2.50;99.90;;;;;;4999725;28;20113;-79
2021/12/14 06:29:21;;;;;;;0.00;0.00;;;2.50;99.90;;;;;;5001671;28;20105;-78
2021/12/14 06:31:49;;;;;;;0.00;0.00;;;2.50;99.90;;;;;;5007354;28;20504;-79
2021/12/14 06:34:20;;;;;;;0.10;0.10;;;2.50;99.90;;;;;;4996462;28;20041;-79
2021/12/14 06:37:04;;;;;;;0.05;0.05;;;2.40;99.90;;;;;;5010012;28;20034;-77
2021/12/14 06:39:51;;;;;;;0.10;0.10;;;2.40;99.90;;;;;;5000559;28;20030;-79
2021/12/14 06:42:16;;;;;;;0.68;0.68;;;2.40;99.90;;;;;;4995762;28;20092;-77
2021/12/14 06:44:42;;;;;;;0.03;0.03;;;2.40;99.90;;;;;;4994613;28;20489;-77
2021/12/14 06:47:08;;;;;;;0.22;0.22;;;2.50;99.90;;;;;;4995068;28;20041;-80
2021/12/14 06:49:34;;;;;;;0.45;0.45;;;2.50;99.90;;;;;;4998522;28;20058;-77
2021/12/14 06:52:00;;;;;;;0.00;0.00;;;2.40;99.90;;;;;;5015438;28;20504;-79
2021/12/14 06:54:30;;;;;;;3.65;0.47;;;2.40;99.90;;;;;;5014087;28;20025;-78
2021/12/14 06:57:01;;;;;;;0.45;0.45;;;2.50;99.90;;;;;;5012768;28;20026;-78
2021/12/14 06:59:27;;;;;;;0.20;0.20;;;2.50;99.90;;;;;;4995603;28;20034;-76
2021/12/14 07:02:02;;;;;;;0.00;0.00;;;2.50;99.90;;;;;;4999404;28;20030;-78
2021/12/14 07:04:31;;;;;;;0.73;0.57;;;2.50;99.90;;;;;;5005305;28;20425;-79
2021/12/14 07:07:06;;;;;;;0.50;0.28;;;2.60;99.90;;;;;;5001393;28;20033;-78
2021/12/14 07:09:39;;;;;;;0.10;0.05;;;2.60;99.90;;;;;;5003666;28;20029;-77
2021/12/14 07:12:11;;;;;;;0.00;0.00;;;2.60;99.90;;;;;;4995830;28;20022;-77
2021/12/14 07:14:39;;;;;;;0.00;0.00;;;2.60;99.90;;;;;;5002244;28;20028;-77
2021/12/14 07:17:10;;;;;;;0.05;0.05;;;2.60;99.90;;;;;;5001810;28;20080;-78
2021/12/14 07:19:54;;;;;;;0.20;0.20;;;2.70;99.90;;;;;;4993112;28;20022;-78
2021/12/14 07:22:23;;;;;;;0.00;0.00;;;2.60;99.90;;;;;;5022526;28;20030;-77
2021/12/14 07:25:08;;;;;;;0.28;0.28;;;2.60;99.90;;;;;;4991526;28;20076;-78
2021/12/14 07:27:38;;;;;;;0.22;0.22;;;2.60;99.90;;;;;;4996673;28;20034;-78
2021/12/14 07:30:22;;;;;;;0.00;0.00;;;2.60;99.90;;;;;;4994956;28;20064;-78
2021/12/14 07:33:00;;;;;;;0.10;0.10;;;2.50;99.90;;;;;;4996102;28;20034;-78
2021/12/14 07:35:28;;;;;;;0.00;0.00;;;2.50;99.90;;;;;;4993276;28;20049;-77
2021/12/14 07:37:57;;;;;;;0.00;0.00;;;2.50;99.90;;;;;;4992848;28;20030;-77
2021/12/14 07:40:31;;;;;;;0.00;0.00;;;2.50;99.90;;;;;;4993883;28;20030;-79
2021/12/14 07:43:26;;;;;;;0.00;0.00;;;2.40;99.90;;;;;;4994303;28;20060;-78
2021/12/14 07:45:52;;;;;;;0.63;0.30;;;2.40;99.90;;;;;;5007837;28;20057;-77
2021/12/14 07:48:39;;;;;;;0.00;0.00;;;2.40;99.90;;;;;;4993163;28;20057;-77
2021/12/14 07:51:04;;;;;;;0.65;0.20;;;2.40;99.90;;;;;;5008079;28;20485;-78
2021/12/14 07:53:41;;;;;;;0.00;0.00;;;2.40;99.90;;;;;;5000471;28;20030;-78
2021/12/14 07:56:19;;;;;;;0.05;0.05;;;2.40;99.90;;;;;;5008918;28;20062;-78
2021/12/14 07:58:47;;;;;;;0.85;0.52;;;2.40;99.90;;;;;;5005512;28;20646;-78
2021/12/14 08:01:14;;;;;;;0.60;0.60;;;2.40;99.90;;;;;;5023769;28;20053;-77
2021/12/14 08:03:40;;;;;;;3.15;2.83;;;2.40;99.90;;;;;;5007727;28;20037;-78
2021/12/14 08:06:09;;;;;;;1.10;1.10;;;2.40;99.90;;;;;;4993049;28;20030;-78
2021/12/14 08:08:48;;;;;;;0.10;0.10;;;2.40;99.90;;;;;;5001981;28;20052;-78
2021/12/14 08:13:54;;;;;;;5.18;1.02;;;2.50;99.90;;;;;;4996339;28;20087;-77
2021/12/14 08:16:20;;;;;;;2.28;2.00;;;2.50;99.90;;;;;;5000115;28;20045;-77
2021/12/14 08:18:46;;;;;;;0.08;0.08;;;2.60;99.90;;;;;;4993488;28;20030;-78
2021/12/14 08:21:21;;;;;;;0.00;0.00;;;2.60;99.90;;;;;;4994854;28;20113;-78
2021/12/14 08:24:00;;;;;;;0.57;0.25;;;2.60;99.90;;;;;;5006565;28;20026;-78
2021/12/14 08:26:28;;;;;;;0.10;0.10;;;2.70;99.90;;;;;;4998388;28;20648;-77
2021/12/14 08:28:55;;;;;;;0.00;0.00;;;2.70;99.90;;;;;;5008276;28;20021;-77
2021/12/14 08:31:24;;;;;;;0.10;0.10;;;2.80;99.90;;;;;;4997070;28;20896;-78
2021/12/14 08:34:02;;;;;;;0.00;0.00;;;2.80;99.90;;;;;;4999830;28;20412;-78
2021/12/14 08:36:54;;;;;;;0.00;0.00;;;2.90;99.90;;;;;;4985579;28;20569;-77
2021/12/14 08:39:24;;;;;;;0.00;0.00;;;3.00;99.90;;;;;;4988485;28;20050;-77
2021/12/14 08:41:58;;;;;;;0.10;0.10;;;3.10;99.90;;;;;;5002699;28;20147;-77
2021/12/14 08:44:36;;;;;;;0.43;0.38;;;3.20;99.90;;;;;;5006256;28;20422;-79
2021/12/14 08:47:05;;;;;;;0.00;0.00;;;3.30;99.90;;;;;;5010429;28;20049;-78
2021/12/14 08:49:31;;;;;;;0.05;0.05;;;3.40;99.90;;;;;;5010444;28;20018;-80
2021/12/14 08:51:57;;;;;;;0.00;0.00;;;3.40;99.90;;;;;;5010631;28;20032;-79
2021/12/14 08:54:27;;;;;;;0.00;0.00;;;3.50;99.90;;;;;;5007512;28;20382;-77
2021/12/14 08:57:13;;;;;;;0.00;0.00;;;3.60;99.90;;;;;;5002724;28;20519;-79
2021/12/14 08:59:42;;;;;;;0.45;0.45;;;3.70;99.90;;;;;;4996695;28;20038;-79
2021/12/14 09:02:12;;;;;;;0.00;0.00;;;3.80;99.90;;;;;;4996716;28;20069;-79
2021/12/14 09:04:52;;;;;;;0.03;0.03;;;3.90;99.90;;;;;;5002539;28;20116;-77
2021/12/14 09:07:22;;;;;;;0.10;0.10;;;4.00;99.90;;;;;;5003392;28;20018;-77
2021/12/14 09:09:48;;;;;;;0.00;0.00;;;4.00;99.90;;;;;;5008674;28;20116;-79
2021/12/14 09:12:36;;;;;;;0.00;0.00;;;4.10;99.90;;;;;;5000095;28;20058;-78
2021/12/14 09:15:41;;;;;;;0.43;0.13;;;4.10;99.90;;;;;;5004185;28;20034;-80
2021/12/14 09:18:11;;;;;;;1.25;1.15;;;4.20;99.90;;;;;;4996358;28;20038;-77
2021/12/14 09:20:43;;;;;;;0.00;0.00;;;4.30;99.90;;;;;;5007042;28;20084;-78
2021/12/14 09:23:14;;;;;;;0.13;0.13;;;4.30;99.90;;;;;;5009834;28;21902;-79
2021/12/14 09:25:42;;;;;;;0.10;0.10;;;4.40;99.90;;;;;;5003803;28;20030;-78
2021/12/14 09:28:08;;;;;;;0.00;0.00;;;4.40;99.90;;;;;;5010043;28;20052;-79
2021/12/14 09:30:38;;;;;;;0.00;0.00;;;4.40;99.90;;;;;;5010233;28;20535;-78
2021/12/14 09:33:05;;;;;;;0.00;0.00;;;4.60;99.90;;;;;;5003150;28;20401;-78
2021/12/14 09:35:35;;;;;;;0.50;0.47;;;4.80;99.90;;;;;;5003785;28;20378;-79
2021/12/14 09:38:03;;;;;;;0.05;0.05;;;4.90;99.90;;;;;;5009378;28;20022;-78
2021/12/14 09:40:40;;;;;;;0.00;0.00;;;5.00;99.90;;;;;;5009630;28;20447;-79
2021/12/14 09:43:06;;;;;;;0.00;0.00;;;4.90;99.90;;;;;;5003697;28;20117;-79
2021/12/14 09:45:42;;;;;;;0.08;0.08;;;5.00;99.90;;;;;;5009484;28;20026;-78
2021/12/14 09:48:12;;;;;;;0.30;0.30;;;5.20;99.90;;;;;;5008418;28;20018;-79
2021/12/14 09:50:40;;;;;;;0.00;0.00;;;5.30;99.90;;;;;;5009453;28;20085;-79
2021/12/14 09:53:10;;;;;;;0.00;0.00;;;5.50;99.90;;;;;;5001423;28;20026;-79
2021/12/14 09:55:39;;;;;;;0.10;0.10;;;5.60;99.90;;;;;;5001023;28;20030;-79
2021/12/14 09:58:11;;;;;;;0.00;0.00;;;5.60;99.90;;;;;;5004844;28;20042;-78
2021/12/14 10:00:42;;;;;;;2.55;1.02;;;5.60;99.90;;;;;;4995817;28;20089;-79
2021/12/14 10:03:09;;;;;;;0.00;0.00;;;5.60;99.90;;;;;;5003837;28;20377;-78
2021/12/14 10:05:36;;;;;;;0.00;0.00;;;5.50;99.90;;;;;;5004637;28;20109;-79
2021/12/14 10:08:14;;;;;;;0.10;0.10;;;5.60;99.90;;;;;;5005048;28;20080;-79
2021/12/14 10:10:41;;;;;;;0.10;0.10;;;5.70;99.90;;;;;;4998900;28;20440;-78
2021/12/14 10:13:07;;;;;;;0.00;0.00;;;5.70;99.90;;;;;;5007242;28;20424;-78
2021/12/14 10:15:37;;;;;;;0.00;0.00;;;5.70;99.90;;;;;;5017585;28;20107;-79
2021/12/14 10:18:16;;;;;;;0.10;0.10;;;5.70;99.90;;;;;;5009808;28;20037;-79
2021/12/14 10:20:50;;;;;;;0.00;0.00;;;5.80;99.90;;;;;;5017461;28;20030;-79
2021/12/14 10:23:17;;;;;;;0.00;0.00;;;6.00;99.90;;;;;;5011100;28;20061;-79
2021/12/14 10:25:43;;;;;;;0.63;0.22;;;6.00;99.90;;;;;;5001129;28;20018;-79
2021/12/14 10:28:09;;;;;;;0.00;0.00;;;6.10;99.90;;;;;;5008391;28;20038;-79
2021/12/14 10:30:40;;;;;;;0.43;0.43;;;6.10;99.90;;;;;;5009720;28;20026;-79
2021/12/14 10:33:06;;;;;;;0.00;0.00;;;6.20;99.90;;;;;;5006425;28;20509;-78
2021/12/14 10:35:41;;;;;;;0.10;0.10;;;6.10;99.90;;;;;;5007775;28;20046;-78
2021/12/14 10:38:18;;;;;;;0.00;0.00;;;6.10;99.90;;;;;;5003350;28;20029;-78
2021/12/14 10:43:32;;;;;;;0.00;0.00;;;6.10;99.90;;;;;;5001927;28;20508;-80
2021/12/14 10:46:11;;;;;;;0.00;0.00;;;6.20;99.90;;;;;;5001576;28;20049;-78
2021/12/14 10:48:41;;;;;;;0.00;0.00;;;6.30;99.90;;;;;;4998827;28;20037;-78
2021/12/14 10:51:11;;;;;;;0.28;0.28;;;6.40;99.90;;;;;;5007172;28;20168;-78
2021/12/14 10:53:41;;;;;;;0.00;0.00;;;6.40;99.90;;;;;;4996323;28;20026;-78
2021/12/14 10:56:14;;;;;;;0.00;0.00;;;6.30;99.90;;;;;;4994201;28;20464;-78
2021/12/14 10:58:41;;;;;;;;;;;6.40;99.90;;;;;;5001200;28;21035;-78
2021/12/14 11:01:15;;;;;;;0.10;0.10;;;6.50;99.90;;;;;;5007380;28;19939;-79
2021/12/14 11:03:45;;;;;;;;;;;6.80;99.90;;;;;;5004477;28;20092;-78
2021/12/14 11:06:20;;;;;;;0.00;0.00;;;6.90;99.90;;;;;;5005816;28;20051;-79
2021/12/14 11:11:28;;;;;;;0.00;0.00;;;7.10;99.90;;;;;;5001200;28;20036;-79
2021/12/14 11:14:00;;;;;;;0.00;0.00;;;7.40;99.90;;;;;;5010470;28;20026;-79
2021/12/14 11:19:43;;;;;;;0.00;0.00;;;7.30;99.90;;;;;;5010592;28;20416;-78
2021/12/14 11:22:29;;;;;;;4.57;0.43;;;7.10;99.90;;;;;;5016111;28;20643;-78
2021/12/14 11:25:09;;;;;;;0.00;0.00;;;7.00;99.90;;;;;;5011895;28;20037;-78
2021/12/14 11:27:40;;;;;;;0.20;0.20;;;6.90;99.90;;;;;;5007072;28;20018;-78
2021/12/14 11:30:31;;;;;;;0.28;0.28;;;7.00;99.90;;;;;;5009977;28;20057;-78
2021/12/14 11:33:16;;;;;;;0.00;0.00;;;6.90;99.90;;;;;;5012454;28;20507;-78
2021/12/14 11:35:47;;;;;;;0.00;0.00;;;7.00;99.90;;;;;;5004094;28;20026;-78
2021/12/14 11:38:33;;;;;;;0.80;0.25;;;7.00;99.90;;;;;;5006231;28;20022;-78
2021/12/14 11:41:20;;;;;;;0.00;0.00;;;7.00;99.90;;;;;;5011516;28;20021;-78
2021/12/14 11:44:14;;;;;;;0.08;0.03;;;7.10;99.90;;;;;;5009900;28;20069;-78
2021/12/14 11:47:22;;;;;;;0.10;0.10;;;7.30;99.90;;;;;;5001980;28;20042;-78
2021/12/14 11:50:05;;;;;;;0.00;0.00;;;7.30;99.90;;;;;;5003904;28;20113;-78
2021/12/14 11:52:56;;;;;;;0.00;0.00;;;7.30;99.90;;;;;;5005568;28;20428;-78
2021/12/14 11:55:43;;;;;;;0.10;0.10;;;7.40;99.90;;;;;;5002766;28;20067;-78
2021/12/14 11:58:16;;;;;;;0.00;0.00;;;7.30;99.90;;;;;;5003110;28;20038;-78
2021/12/14 12:01:25;;;;;;;0.00;0.00;;;7.30;99.90;;;;;;5004484;28;20089;-78
2021/12/14 12:03:56;;;;;;;0.00;0.00;;;7.50;99.90;;;;;;4997608;28;20038;-78
2021/12/14 12:11:50;;;;;;;0.00;0.00;;;8.00;99.90;;;;;;4997483;28;20347;-78
2021/12/14 12:14:23;;;;;;;0.00;0.00;;;8.10;99.90;;;;;;5007926;28;20026;-78
2021/12/14 12:16:51;;;;;;;0.20;0.20;;;7.80;99.90;;;;;;5004427;28;20041;-78
2021/12/14 12:19:22;;;;;;;3.33;0.55;;;7.90;99.90;;;;;;5004672;28;20038;-78
2021/12/14 12:21:50;;;;;;;1.55;1.25;;;8.00;99.90;;;;;;5006832;28;20038;-78
2021/12/14 12:24:41;;;;;;;0.13;0.13;;;8.10;99.90;;;;;;5009161;28;20124;-78
2021/12/14 12:27:22;;;;;;;0.00;0.00;;;8.00;99.90;;;;;;5010096;28;20506;-78
2021/12/14 12:30:22;;;;;;;0.70;0.28;;;7.90;99.90;;;;;;5009431;28;20018;-78
2021/12/14 12:32:48;;;;;;;0.10;0.10;;;8.00;99.90;;;;;;5011626;28;20393;-78
2021/12/14 12:35:39;;;;;;;0.00;0.00;;;7.80;99.90;;;;;;5007665;28;20096;-78
2021/12/14 12:38:25;;;;;;;3.83;1.55;;;7.90;99.90;;;;;;5000917;28;20037;-78
2021/12/14 12:40:59;;;;;;;0.10;0.10;;;7.80;99.90;;;;;;5009492;28;20073;-78
2021/12/14 12:43:41;;;;;;;0.22;0.22;;;7.60;99.90;;;;;;4999870;28;20030;-78
2021/12/14 12:46:56;;;;;;;0.10;0.10;;;7.70;99.90;;;;;;5010068;28;20149;-78
2021/12/14 12:49:32;;;;;;;0.55;0.55;;;7.90;99.90;;;;;;4940798;28;20483;-78
2021/12/14 12:51:57;;;;;;;0.00;0.00;;;7.90;99.90;;;;;;4946659;29;20032;-78
2021/12/14 12:54:47;;;;;;;0.25;0.15;;;8.00;99.90;;;;;;4940183;28;20039;-78
2021/12/14 12:57:20;;;;;;;1.65;0.55;;;8.10;99.90;;;;;;4942300;29;20048;-78
2021/12/14 12:59:55;;;;;;;2.15;1.38;;;8.00;99.90;;;;;;4925298;29;20044;-78
2021/12/14 13:02:21;;;;;;;0.47;0.47;;;8.10;99.90;;;;;;4926199;29;20051;-78
2021/12/14 13:04:52;;;;;;;0.25;0.20;;;8.20;99.90;;;;;;4926707;29;20052;-79
2021/12/14 13:07:26;;;;;;;0.00;0.00;;;8.00;99.90;;;;;;4938062;29;20032;-80
2021/12/14 13:10:05;;;;;;;0.35;0.20;;;7.90;99.90;;;;;;4942469;29;20571;-80
2021/12/14 13:12:43;;;;;;;0.13;0.13;;;8.00;99.90;;;;;;4933269;29;20055;-77
2021/12/14 13:15:29;;;;;;;0.38;0.38;;;8.00;99.90;;;;;;4928208;29;20071;-77
2021/12/14 13:18:18;;;;;;;0.38;0.38;;;8.10;99.90;;;;;;4928262;29;20027;-78
2021/12/14 13:20:46;;;;;;;0.00;0.00;;;8.20;99.90;;;;;;4929677;29;20050;-79
2021/12/14 13:23:13;;;;;;;0.20;0.20;;;8.10;99.90;;;;;;4943462;28;20562;-78
2021/12/14 13:25:41;;;;;;;0.03;0.03;;;8.10;99.90;;;;;;4963805;28;20109;-79
2021/12/14 13:28:07;;;;;;;0.35;0.30;;;8.00;99.90;;;;;;4968435;28;20031;-80
2021/12/14 13:30:33;;;;;;;0.00;0.00;;;7.80;99.90;;;;;;4966966;28;20114;-79
2021/12/14 13:32:59;;;;;;;0.00;0.00;;;7.70;99.90;;;;;;4963546;28;20510;-77
2021/12/14 13:35:32;;;;;;;0.10;0.10;;;7.60;99.90;;;;;;4966457;28;20035;-77
2021/12/14 13:38:06;;;;;;;0.00;0.00;;;7.80;99.90;;;;;;4964945;28;20390;-77
2021/12/14 13:40:41;;;;;;;0.20;0.20;;;7.80;99.90;;;;;;4960129;28;20098;-77
2021/12/14 13:43:10;;;;;;;0.20;0.20;;;7.80;99.90;;;;;;4968032;28;20130;-77
2021/12/14 13:45:40;;;;;;;0.10;0.10;;;7.90;99.90;;;;;;4968515;28;20027;-77
2021/12/14 13:48:09;;;;;;;1.27;0.95;;;8.00;99.90;;;;;;4960807;28;20032;-77
2021/12/14 13:50:51;;;;;;;0.00;0.00;;;7.90;99.90;;;;;;4962322;28;20121;-78
2021/12/14 13:53:18;;;;;;;0.25;0.20;;;7.90;99.90;;;;;;4969504;28;20486;-78
2021/12/14 13:55:52;;;;;;;0.00;0.00;;;7.80;99.90;;;;;;4967543;28;20046;-77
2021/12/14 13:58:23;;;;;;;0.22;0.20;;;7.90;99.90;;;;;;4984061;28;20042;-77
2021/12/14 14:01:14;;;;;;;0.20;0.10;;;7.90;99.90;;;;;;4999708;28;20037;-77
2021/12/14 14:03:43;;;;;;;0.00;0.00;;;8.00;99.90;;;;;;5005014;28;20026;-78
2021/12/14 14:06:13;;;;;;;0.70;0.50;;;8.10;99.90;;;;;;5005431;28;20041;-79
2021/12/14 14:08:44;;;;;;;0.20;0.20;;;8.10;99.90;;;;;;5004717;28;20098;-78